Time;durP1;ratioP1;P1;durP2;ratioP2;P2;SDS_P1;SDS_P2;PMS_P1;PMS_P2;Temp;Humidity;BMP_temperature;BMP_pressure;BME280_temperature;BME280_humidity;BME280_pressure;Samples;Min_cycle;Max_cycle;Signal;HPM_P1;HPM_P2
2024/02/27 00:00:07;;;;;;;14.13;6.93;;;4.00;99.90;;;;;;5033652;28;20037;-77
2024/02/27 00:02:32;;;;;;;12.43;6.40;;;4.00;99.90;;;;;;5033142;28;20403;-76
2024/02/27 00:04:58;;;;;;;13.73;6.53;;;4.00;99.90;;;;;;5034340;28;20044;-76
2024/02/27 00:07:25;;;;;;;11.63;6.78;;;4.00;99.90;;;;;;5051602;28;20098;-76
2024/02/27 00:09:52;;;;;;;15.00;6.80;;;4.00;99.90;;;;;;5051411;28;20507;-76
2024/02/27 00:12:18;;;;;;;13.07;6.05;;;3.90;99.90;;;;;;5030296;28;20052;-76
2024/02/27 00:14:43;;;;;;;12.43;6.63;;;3.90;99.90;;;;;;5049708;28;20041;-76
2024/02/27 00:17:09;;;;;;;11.18;6.57;;;3.90;99.90;;;;;;5033813;28;20045;-76
2024/02/27 00:19:35;;;;;;;11.45;6.05;;;3.90;99.90;;;;;;5051878;28;20766;-76
2024/02/27 00:22:00;;;;;;;12.65;6.22;;;3.90;99.90;;;;;;5033082;28;20051;-76
2024/02/27 00:24:26;;;;;;;12.80;6.85;;;3.90;99.90;;;;;;5050648;28;20049;-77
2024/02/27 00:26:51;;;;;;;13.82;6.97;;;3.90;99.90;;;;;;5049626;28;20041;-76
2024/02/27 00:29:18;;;;;;;12.20;6.22;;;3.80;99.90;;;;;;5051289;28;20037;-76
2024/02/27 00:31:44;;;;;;;13.93;7.07;;;3.90;99.90;;;;;;5029006;28;20041;-76
2024/02/27 00:34:09;;;;;;;12.05;6.40;;;3.80;99.90;;;;;;5032045;28;20043;-76
2024/02/27 00:36:35;;;;;;;11.10;6.47;;;3.80;99.90;;;;;;5050906;28;20040;-76
2024/02/27 00:39:00;;;;;;;11.82;6.45;;;3.80;99.90;;;;;;5033699;28;20037;-76
2024/02/27 00:41:26;;;;;;;12.57;6.20;;;3.80;99.90;;;;;;5051231;28;20044;-76
2024/02/27 00:43:52;;;;;;;9.90;6.03;;;3.80;99.90;;;;;;5032861;28;20049;-76
2024/02/27 00:46:17;;;;;;;11.45;6.15;;;3.80;99.90;;;;;;5032310;28;20095;-77
2024/02/27 00:48:43;;;;;;;10.65;6.22;;;3.70;99.90;;;;;;5032928;28;20040;-76
2024/02/27 00:51:08;;;;;;;10.75;6.60;;;3.70;99.90;;;;;;5033047;28;20406;-76
2024/02/27 00:53:34;;;;;;;11.20;6.40;;;3.70;99.90;;;;;;5050869;28;20124;-76
2024/02/27 00:56:00;;;;;;;13.32;7.00;;;3.70;99.90;;;;;;5050646;28;20410;-76
2024/02/27 00:58:26;;;;;;;16.55;6.80;;;3.70;99.90;;;;;;5033531;28;20094;-76
2024/02/27 01:00:52;;;;;;;12.18;6.90;;;4.90;99.90;;;;;;5042163;28;20037;-76
2024/02/27 01:03:17;;;;;;;11.95;6.80;;;3.70;99.90;;;;;;5033104;28;20487;-77
2024/02/27 01:05:43;;;;;;;13.20;7.18;;;3.70;99.90;;;;;;5049581;28;20029;-76
2024/02/27 01:08:09;;;;;;;13.70;7.07;;;3.70;99.90;;;;;;5044554;28;20120;-76
2024/02/27 01:10:35;;;;;;;12.73;6.65;;;3.70;99.90;;;;;;5032206;28;20407;-76
2024/02/27 01:13:01;;;;;;;13.27;7.70;;;3.70;99.90;;;;;;5049482;28;20924;-76
2024/02/27 01:15:26;;;;;;;11.82;6.60;;;3.70;99.90;;;;;;5051290;28;20028;-76
2024/02/27 01:17:52;;;;;;;13.30;6.68;;;3.70;99.90;;;;;;5031633;28;20399;-76
2024/02/27 01:20:18;;;;;;;13.23;6.80;;;3.70;99.90;;;;;;5033060;28;20479;-76
2024/02/27 01:22:44;;;;;;;13.05;7.00;;;3.60;99.90;;;;;;5051152;28;20037;-76
2024/02/27 01:25:12;;;;;;;12.30;6.68;;;3.60;99.90;;;;;;5050552;28;20068;-76
2024/02/27 01:27:38;;;;;;;13.55;6.90;;;3.60;99.90;;;;;;5050776;28;20458;-76
2024/02/27 01:30:04;;;;;;;13.05;7.07;;;3.60;99.90;;;;;;5050675;28;20032;-76
2024/02/27 01:32:29;;;;;;;13.02;6.80;;;3.60;99.90;;;;;;5029157;28;20052;-76
2024/02/27 01:34:57;;;;;;;12.68;6.88;;;3.60;99.90;;;;;;5032274;28;20041;-76
2024/02/27 01:37:23;;;;;;;15.52;7.65;;;3.60;99.90;;;;;;5031846;28;20052;-76
2024/02/27 01:39:48;;;;;;;14.23;7.40;;;3.60;99.90;;;;;;5050084;28;20036;-76
2024/02/27 01:42:14;;;;;;;14.15;6.80;;;3.60;99.90;;;;;;5050692;28;20082;-77
2024/02/27 01:44:52;;;;;;;14.55;7.47;;;3.60;99.90;;;;;;5049750;28;20041;-76
2024/02/27 01:47:21;;;;;;;12.00;6.93;;;3.60;99.90;;;;;;5032731;28;20115;-76
2024/02/27 01:49:47;;;;;;;11.52;6.35;;;3.60;99.90;;;;;;5015595;28;20495;-76
2024/02/27 01:52:14;;;;;;;11.52;6.43;;;3.60;99.90;;;;;;5028155;28;20040;-76
2024/02/27 01:54:43;;;;;;;12.98;7.00;;;3.60;99.90;;;;;;5050250;28;20220;-76
2024/02/27 01:57:10;;;;;;;13.18;7.18;;;3.50;99.90;;;;;;5028413;28;20125;-76
2024/02/27 01:59:38;;;;;;;13.68;7.10;;;3.50;99.90;;;;;;5027168;28;20046;-76
2024/02/27 02:02:05;;;;;;;16.17;7.47;;;3.50;99.90;;;;;;5032525;28;20072;-76
2024/02/27 02:04:31;;;;;;;12.68;7.03;;;3.50;99.90;;;;;;5032622;28;20140;-76
2024/02/27 02:06:56;;;;;;;13.48;6.70;;;3.50;99.90;;;;;;5031755;28;20068;-76
2024/02/27 02:09:22;;;;;;;14.02;7.35;;;3.50;99.90;;;;;;5024570;28;20079;-76
2024/02/27 02:11:48;;;;;;;16.63;7.55;;;3.50;99.90;;;;;;5044746;28;20087;-76
2024/02/27 02:14:14;;;;;;;16.13;7.95;;;3.50;99.90;;;;;;5031948;28;20388;-76
2024/02/27 02:16:39;;;;;;;13.05;7.65;;;3.50;99.90;;;;;;5032436;28;20040;-76
2024/02/27 02:19:05;;;;;;;14.52;7.07;;;3.50;99.90;;;;;;5028626;28;20668;-76
2024/02/27 02:21:32;;;;;;;13.18;7.22;;;3.50;99.90;;;;;;5050104;28;20037;-76
2024/02/27 02:24:00;;;;;;;15.55;7.50;;;3.40;99.90;;;;;;5046470;28;20120;-76
2024/02/27 02:26:29;;;;;;;16.45;8.13;;;3.50;99.90;;;;;;5030516;28;20048;-76
2024/02/27 02:28:55;;;;;;;16.95;7.72;;;3.50;99.90;;;;;;5015746;28;20041;-76
2024/02/27 02:31:20;;;;;;;17.90;7.90;;;3.40;99.90;;;;;;5041562;28;20102;-76
2024/02/27 02:33:46;;;;;;;14.70;7.75;;;3.40;99.90;;;;;;5044374;28;20103;-76
2024/02/27 02:36:12;;;;;;;15.90;7.90;;;3.40;99.90;;;;;;5035920;28;20091;-76
2024/02/27 02:38:37;;;;;;;15.73;7.40;;;3.40;99.90;;;;;;5030452;28;20130;-76
2024/02/27 02:41:03;;;;;;;15.35;7.88;;;3.40;99.90;;;;;;5032013;28;20043;-76
2024/02/27 02:43:29;;;;;;;16.15;7.38;;;3.40;99.90;;;;;;5045049;28;20657;-76
2024/02/27 02:45:54;;;;;;;13.45;8.13;;;4.70;99.90;;;;;;5031072;28;20403;-77
2024/02/27 02:48:20;;;;;;;17.48;8.23;;;3.40;99.90;;;;;;5035387;28;20119;-76
2024/02/27 02:50:46;;;;;;;19.08;8.55;;;3.40;99.90;;;;;;5035406;28;20040;-76
2024/02/27 02:53:11;;;;;;;13.85;7.15;;;3.40;99.90;;;;;;5044532;28;20033;-76
2024/02/27 02:55:42;;;;;;;15.98;8.40;;;3.40;99.90;;;;;;5033186;28;20037;-76
2024/02/27 02:58:08;;;;;;;14.80;7.90;;;3.40;99.90;;;;;;5044977;28;20041;-76
2024/02/27 03:00:34;;;;;;;16.85;8.00;;;3.40;99.90;;;;;;5018919;28;20033;-76
2024/02/27 03:02:59;;;;;;;14.25;8.00;;;3.40;99.90;;;;;;5052399;28;20063;-76
2024/02/27 03:05:25;;;;;;;16.70;8.30;;;3.40;99.90;;;;;;5034147;28;20032;-76
2024/02/27 03:07:52;;;;;;;16.70;8.07;;;3.40;99.90;;;;;;5039617;28;20395;-76
2024/02/27 03:10:18;;;;;;;15.32;7.40;;;3.30;99.90;;;;;;5031479;28;20037;-76
2024/02/27 03:12:44;;;;;;;15.02;7.82;;;3.40;99.90;;;;;;5030735;28;20135;-76
2024/02/27 03:15:10;;;;;;;15.50;8.63;;;3.30;99.90;;;;;;5034784;28;20055;-76
2024/02/27 03:17:36;;;;;;;17.27;7.82;;;3.30;99.90;;;;;;5038313;28;20546;-76
2024/02/27 03:20:05;;;;;;;20.55;8.07;;;3.30;99.90;;;;;;5045649;28;20033;-76
2024/02/27 03:22:31;;;;;;;12.65;7.72;;;3.30;99.90;;;;;;5027642;28;20076;-76
2024/02/27 03:24:57;;;;;;;19.25;8.15;;;3.30;99.90;;;;;;5033844;28;20086;-76
2024/02/27 03:27:23;;;;;;;14.38;7.63;;;3.30;99.90;;;;;;5047948;28;20037;-76
2024/02/27 03:29:48;;;;;;;15.10;7.88;;;3.30;99.90;;;;;;5027762;28;20072;-76
2024/02/27 03:32:14;;;;;;;13.65;7.05;;;3.30;99.90;;;;;;5044108;28;20107;-76
2024/02/27 03:34:39;;;;;;;19.40;8.32;;;3.30;99.90;;;;;;5048458;28;20048;-76
2024/02/27 03:37:05;;;;;;;16.00;8.88;;;3.30;99.90;;;;;;5045827;28;20060;-76
2024/02/27 03:39:31;;;;;;;18.10;8.65;;;3.30;99.90;;;;;;5034576;28;20041;-76
2024/02/27 03:41:56;;;;;;;15.73;8.43;;;3.20;99.90;;;;;;5051829;28;20036;-76
2024/02/27 03:44:22;;;;;;;18.00;8.52;;;3.30;99.90;;;;;;5040322;28;20381;-76
2024/02/27 03:46:48;;;;;;;15.40;7.80;;;3.30;99.90;;;;;;5029306;28;20056;-76
2024/02/27 03:49:13;;;;;;;14.95;8.43;;;3.20;99.90;;;;;;5033850;28;20067;-76
2024/02/27 03:51:39;;;;;;;19.25;7.65;;;3.20;99.90;;;;;;5051602;28;20033;-76
2024/02/27 03:54:04;;;;;;;14.50;7.75;;;3.20;99.90;;;;;;5051869;28;20496;-76
2024/02/27 03:56:30;;;;;;;15.98;8.68;;;3.20;99.90;;;;;;5034303;28;20036;-76
2024/02/27 03:58:56;;;;;;;16.63;9.07;;;3.20;99.90;;;;;;5033473;28;20171;-76
2024/02/27 04:01:22;;;;;;;17.42;8.15;;;3.20;99.90;;;;;;5017344;28;20045;-76
2024/02/27 04:03:47;;;;;;;16.05;8.00;;;3.20;99.90;;;;;;5034279;28;20052;-76
2024/02/27 04:06:13;;;;;;;16.75;8.38;;;3.20;99.90;;;;;;5050483;28;20131;-76
2024/02/27 04:08:39;;;;;;;19.33;8.70;;;3.20;99.90;;;;;;5051497;28;20062;-76
2024/02/27 04:11:05;;;;;;;19.15;8.48;;;3.20;99.90;;;;;;5051566;28;20384;-76
2024/02/27 04:13:31;;;;;;;14.15;8.57;;;3.20;99.90;;;;;;5051236;28;20108;-76
2024/02/27 04:15:56;;;;;;;15.55;8.07;;;3.20;99.90;;;;;;5050387;28;20029;-76
2024/02/27 04:18:22;;;;;;;19.35;8.45;;;3.10;99.90;;;;;;5032470;28;20033;-77
2024/02/27 04:20:49;;;;;;;16.30;8.38;;;3.10;99.90;;;;;;5038971;28;20102;-76
2024/02/27 04:23:14;;;;;;;14.27;7.90;;;3.10;99.90;;;;;;5033645;28;20120;-76
2024/02/27 04:25:40;;;;;;;16.05;7.57;;;3.00;99.90;;;;;;5034291;28;20124;-76
2024/02/27 04:28:06;;;;;;;14.23;7.63;;;3.00;99.90;;;;;;5030668;28;20602;-76
2024/02/27 04:30:32;;;;;;;15.40;8.38;;;3.00;99.90;;;;;;5031505;28;20094;-76
2024/02/27 04:32:58;;;;;;;17.38;8.52;;;2.90;99.90;;;;;;5033053;28;20037;-77
2024/02/27 04:35:23;;;;;;;15.85;8.27;;;2.90;99.90;;;;;;5032925;28;20040;-77
2024/02/27 04:37:49;;;;;;;19.23;8.43;;;2.90;99.90;;;;;;5028390;28;20120;-76
2024/02/27 04:40:15;;;;;;;19.63;9.18;;;2.90;99.90;;;;;;5031627;28;20461;-76
2024/02/27 04:42:41;;;;;;;19.92;8.98;;;2.90;99.90;;;;;;5033215;28;20083;-76
2024/02/27 04:45:06;;;;;;;16.20;8.05;;;2.90;99.90;;;;;;5051503;28;20646;-76
2024/02/27 04:47:32;;;;;;;18.63;7.72;;;2.90;99.90;;;;;;5036088;28;20090;-76
2024/02/27 04:49:58;;;;;;;19.35;9.15;;;2.90;99.90;;;;;;5048062;28;20037;-77
2024/02/27 04:52:24;;;;;;;17.35;8.38;;;2.90;99.90;;;;;;5032765;28;20041;-77
2024/02/27 04:54:49;;;;;;;17.80;8.77;;;2.90;99.90;;;;;;5046226;22;20513;-78
2024/02/27 04:57:15;;;;;;;18.70;8.38;;;2.80;99.90;;;;;;5065207;28;20039;-79
2024/02/27 04:59:41;;;;;;;20.92;8.80;;;2.70;99.90;;;;;;5071088;28;20033;-78
2024/02/27 05:02:06;;;;;;;18.13;8.40;;;2.70;99.90;;;;;;5049326;28;20044;-77
2024/02/27 05:04:32;;;;;;;17.58;8.23;;;2.80;99.90;;;;;;5066699;28;20033;-78
2024/02/27 05:06:58;;;;;;;17.95;9.00;;;2.70;99.90;;;;;;5039155;28;20494;-78
2024/02/27 05:09:24;;;;;;;18.73;8.52;;;2.80;99.90;;;;;;5034458;28;20367;-79
2024/02/27 05:11:49;;;;;;;21.88;9.35;;;2.80;99.90;;;;;;5027643;28;20099;-79
2024/02/27 05:14:16;;;;;;;21.92;9.23;;;2.80;99.90;;;;;;5032297;28;20461;-77
2024/02/27 05:16:41;;;;;;;19.70;8.88;;;2.80;99.90;;;;;;5039153;28;20037;-77
2024/02/27 05:19:09;;;;;;;19.15;9.13;;;2.80;99.90;;;;;;5040014;28;20486;-77
2024/02/27 05:21:35;;;;;;;20.58;8.57;;;2.90;99.90;;;;;;5055534;28;20107;-78
2024/02/27 05:24:00;;;;;;;17.45;7.85;;;2.90;99.90;;;;;;5052201;28;20491;-78
2024/02/27 05:26:27;;;;;;;17.50;9.60;;;2.90;99.90;;;;;;5042691;28;20040;-78
2024/02/27 05:28:52;;;;;;;19.00;8.93;;;2.90;99.90;;;;;;5035063;28;20523;-77
2024/02/27 05:31:26;;;;;;;19.95;9.13;;;2.90;99.90;;;;;;5047523;28;20064;-77
2024/02/27 05:33:54;;;;;;;19.67;8.65;;;3.00;99.90;;;;;;5023550;28;20107;-77
2024/02/27 05:36:20;;;;;;;17.63;9.25;;;3.00;99.90;;;;;;5046515;28;20037;-77
2024/02/27 05:38:46;;;;;;;22.27;8.82;;;3.00;99.90;;;;;;5054462;28;20560;-77
2024/02/27 05:41:12;;;;;;;17.65;8.98;;;3.00;99.90;;;;;;5032416;28;20041;-77
2024/02/27 05:43:38;;;;;;;19.83;9.27;;;3.00;99.90;;;;;;5025105;28;20040;-77
2024/02/27 05:46:05;;;;;;;21.33;9.65;;;3.10;99.90;;;;;;5049986;28;20043;-77
2024/02/27 05:48:35;;;;;;;17.08;9.23;;;3.10;99.90;;;;;;5035512;28;20097;-78
2024/02/27 05:51:00;;;;;;;24.92;9.63;;;3.10;99.90;;;;;;5045666;28;20045;-77
2024/02/27 05:53:28;;;;;;;17.15;8.77;;;3.10;99.90;;;;;;5034773;28;20094;-78
2024/02/27 05:55:54;;;;;;;15.40;8.48;;;3.10;99.90;;;;;;5024711;28;20120;-78
2024/02/27 05:58:20;;;;;;;21.77;9.45;;;3.20;99.90;;;;;;5046562;28;20551;-78
2024/02/27 06:00:45;;;;;;;22.85;9.25;;;3.30;99.90;;;;;;5028058;28;20037;-78
2024/02/27 06:03:11;;;;;;;20.75;9.57;;;3.30;99.90;;;;;;5023046;28;20106;-78
2024/02/27 06:05:36;;;;;;;22.58;9.02;;;3.30;99.90;;;;;;5045652;28;20036;-78
2024/02/27 06:08:02;;;;;;;20.27;9.23;;;3.30;99.90;;;;;;5020009;28;20038;-78
2024/02/27 06:10:28;;;;;;;19.63;9.13;;;3.30;99.90;;;;;;5021678;28;20050;-79
2024/02/27 06:12:53;;;;;;;18.38;9.35;;;3.30;99.90;;;;;;5049309;28;20029;-79
2024/02/27 06:15:19;;;;;;;18.92;8.68;;;3.30;99.90;;;;;;5049465;28;20041;-78
2024/02/27 06:17:45;;;;;;;22.77;9.43;;;3.30;99.90;;;;;;5035432;28;20570;-78
2024/02/27 06:22:10;;;;;;;21.05;10.10;;;3.40;99.90;;;;;;5043275;28;20142;-78
2024/02/27 06:22:57;;;;;;;18.52;9.30;;;3.40;99.90;;;;;;5027749;28;20420;-78
2024/02/27 06:25:22;;;;;;;18.48;9.32;;;3.40;99.90;;;;;;5048981;28;20041;-79
2024/02/27 06:27:48;;;;;;;20.45;9.75;;;3.40;99.90;;;;;;5032748;28;20044;-78
2024/02/27 06:30:17;;;;;;;18.92;9.90;;;3.50;99.90;;;;;;5052722;28;20032;-78
2024/02/27 06:32:42;;;;;;;19.00;9.55;;;3.50;99.90;;;;;;5048319;28;20043;-78
2024/02/27 06:35:11;;;;;;;19.02;9.55;;;3.50;99.90;;;;;;5064255;28;20064;-78
2024/02/27 06:37:37;;;;;;;16.10;9.02;;;3.50;99.90;;;;;;5041657;28;20044;-78
2024/02/27 06:40:04;;;;;;;18.80;9.45;;;3.50;99.90;;;;;;5025883;28;20033;-78
2024/02/27 06:42:41;;;;;;;18.42;10.20;;;3.50;99.90;;;;;;5029137;28;20051;-79
2024/02/27 06:45:07;;;;;;;17.77;9.85;;;3.50;99.90;;;;;;5026235;28;20556;-78
2024/02/27 06:47:33;;;;;;;19.13;9.95;;;3.50;99.90;;;;;;5033662;28;20037;-78
2024/02/27 06:49:59;;;;;;;19.17;9.95;;;3.50;99.90;;;;;;5030888;28;20045;-78
2024/02/27 06:52:25;;;;;;;20.42;10.90;;;3.60;99.90;;;;;;5025997;28;20039;-79
2024/02/27 06:54:52;;;;;;;16.13;10.07;;;3.60;99.90;;;;;;5043640;28;20048;-78
2024/02/27 06:57:17;;;;;;;22.75;9.98;;;3.60;99.90;;;;;;5027812;28;20399;-78
2024/02/27 06:59:43;;;;;;;18.13;10.15;;;3.60;99.90;;;;;;5053490;28;20029;-79
2024/02/27 07:02:09;;;;;;;16.88;9.90;;;3.70;99.90;;;;;;5046272;28;20045;-77
2024/02/27 07:04:34;;;;;;;18.70;10.27;;;3.70;99.90;;;;;;5053301;28;20041;-77
2024/02/27 07:07:03;;;;;;;17.52;9.75;;;3.70;99.90;;;;;;5046525;28;20032;-79
2024/02/27 07:09:29;;;;;;;19.65;10.07;;;3.70;99.90;;;;;;5031401;28;20128;-78
2024/02/27 07:11:56;;;;;;;21.35;10.35;;;3.80;99.90;;;;;;5031937;28;20051;-77
2024/02/27 07:14:22;;;;;;;17.90;10.40;;;3.80;99.90;;;;;;5034153;28;20037;-77
2024/02/27 07:16:47;;;;;;;19.30;9.95;;;3.80;99.90;;;;;;5023004;28;20044;-78
2024/02/27 07:19:13;;;;;;;19.30;10.43;;;4.80;99.90;;;;;;5027336;28;20560;-78
2024/02/27 07:21:39;;;;;;;16.23;9.38;;;3.80;99.90;;;;;;5029747;28;20143;-77
2024/02/27 07:24:06;;;;;;;17.35;9.70;;;3.90;99.90;;;;;;5035580;28;20543;-77
2024/02/27 07:26:31;;;;;;;20.38;10.27;;;3.90;99.90;;;;;;5045924;28;20041;-77
2024/02/27 07:28:57;;;;;;;18.48;9.52;;;3.90;99.90;;;;;;5040497;28;20040;-77
2024/02/27 07:31:22;;;;;;;16.00;9.63;;;4.10;99.90;;;;;;5051945;28;20037;-77
2024/02/27 07:33:48;;;;;;;19.13;10.02;;;4.10;99.90;;;;;;5028477;28;20463;-77
2024/02/27 07:36:14;;;;;;;18.98;10.35;;;4.00;99.90;;;;;;5043270;28;20032;-77
2024/02/27 07:38:40;;;;;;;19.63;9.90;;;4.00;99.90;;;;;;5047875;28;20434;-77
2024/02/27 07:41:05;;;;;;;17.65;9.95;;;4.10;99.90;;;;;;5045332;28;20048;-77
2024/02/27 07:43:31;;;;;;;17.45;9.43;;;4.10;99.90;;;;;;5044543;28;20445;-77
2024/02/27 07:45:57;;;;;;;17.48;9.82;;;4.10;99.90;;;;;;5024922;28;20044;-77
2024/02/27 07:48:22;;;;;;;18.83;10.07;;;4.10;99.90;;;;;;5050408;28;20037;-77
2024/02/27 07:50:48;;;;;;;16.00;9.75;;;4.20;99.90;;;;;;5050995;28;20376;-77
2024/02/27 07:53:13;;;;;;;17.83;9.93;;;4.20;99.90;;;;;;5030477;28;20037;-77
2024/02/27 07:55:41;;;;;;;20.27;10.45;;;4.30;99.90;;;;;;5048564;28;20041;-77
2024/02/27 07:58:08;;;;;;;18.60;10.40;;;4.30;99.90;;;;;;5030063;28;20406;-78
2024/02/27 08:00:34;;;;;;;16.83;10.57;;;4.30;99.90;;;;;;5051487;28;20040;-77
2024/02/27 08:02:59;;;;;;;18.02;10.55;;;4.30;99.90;;;;;;5041584;28;20037;-77
2024/02/27 08:05:27;;;;;;;19.23;10.40;;;4.40;99.90;;;;;;5029437;28;20068;-77
2024/02/27 08:07:53;;;;;;;19.75;11.45;;;4.40;99.90;;;;;;5028658;28;20562;-77
2024/02/27 08:10:20;;;;;;;19.55;10.82;;;4.40;99.90;;;;;;5046039;28;20111;-79
2024/02/27 08:12:48;;;;;;;16.50;10.80;;;4.40;99.90;;;;;;5043864;28;20035;-77
2024/02/27 08:15:15;;;;;;;16.35;10.38;;;4.50;99.90;;;;;;5029237;28;20165;-77
2024/02/27 08:17:42;;;;;;;18.95;10.75;;;4.50;99.90;;;;;;5059966;28;20045;-78
2024/02/27 08:20:08;;;;;;;17.80;11.13;;;4.70;99.90;;;;;;5033062;28;20045;-77
2024/02/27 08:22:34;;;;;;;18.05;10.52;;;4.50;99.90;;;;;;5034440;28;20051;-77
2024/02/27 08:25:00;;;;;;;18.70;11.07;;;4.60;99.90;;;;;;5028548;28;20044;-77
2024/02/27 08:27:26;;;;;;;19.52;11.25;;;4.60;99.90;;;;;;5032613;28;20128;-77
2024/02/27 08:29:52;;;;;;;20.77;11.80;;;4.60;99.90;;;;;;5034215;28;20047;-79
2024/02/27 08:32:19;;;;;;;20.00;11.38;;;4.60;99.90;;;;;;5022698;28;20034;-77
2024/02/27 08:34:45;;;;;;;19.92;11.55;;;4.60;99.90;;;;;;5043253;28;20041;-76
2024/02/27 08:37:11;;;;;;;18.90;11.52;;;4.70;99.90;;;;;;5028812;28;20037;-76
2024/02/27 08:39:36;;;;;;;17.52;11.18;;;4.70;99.90;;;;;;5023212;28;20063;-77
2024/02/27 08:42:03;;;;;;;18.45;11.40;;;4.70;99.90;;;;;;5037037;28;20071;-77
2024/02/27 08:44:28;;;;;;;18.35;12.07;;;4.80;99.90;;;;;;5029489;28;20041;-77
2024/02/27 08:46:54;;;;;;;18.27;12.13;;;4.80;99.90;;;;;;5043907;28;20082;-77
2024/02/27 08:49:20;;;;;;;20.05;12.05;;;4.80;99.90;;;;;;5033559;28;20519;-77
2024/02/27 08:51:45;;;;;;;18.60;12.15;;;4.90;99.90;;;;;;5050038;28;20079;-76
2024/02/27 08:54:12;;;;;;;19.30;12.07;;;6.00;99.90;;;;;;5031046;28;20040;-76
2024/02/27 08:56:40;;;;;;;18.35;12.60;;;5.00;99.90;;;;;;5033567;28;20043;-76
2024/02/27 08:59:06;;;;;;;16.08;10.85;;;5.00;99.90;;;;;;5023726;28;20036;-76
2024/02/27 09:01:32;;;;;;;20.73;12.20;;;5.10;99.90;;;;;;5045163;28;20060;-77
2024/02/27 09:03:57;;;;;;;17.35;11.30;;;5.10;99.90;;;;;;5032664;28;20049;-76
2024/02/27 09:06:23;;;;;;;20.50;12.20;;;5.20;99.90;;;;;;5030648;28;20398;-76
2024/02/27 09:08:49;;;;;;;19.33;11.50;;;5.20;99.90;;;;;;5048932;28;20563;-76
2024/02/27 09:11:14;;;;;;;19.60;11.68;;;5.20;99.90;;;;;;5048308;28;20430;-77
2024/02/27 09:13:40;;;;;;;17.67;12.10;;;5.20;99.90;;;;;;5051186;28;20059;-76
2024/02/27 09:16:06;;;;;;;18.48;12.18;;;5.20;99.90;;;;;;5027008;28;20040;-78
2024/02/27 09:18:32;;;;;;;19.08;11.90;;;5.30;99.90;;;;;;5027603;28;20087;-76
2024/02/27 09:20:58;;;;;;;20.88;13.15;;;5.30;99.90;;;;;;5029988;28;20091;-77
2024/02/27 09:23:25;;;;;;;17.95;11.50;;;5.30;99.90;;;;;;5033143;28;20122;-77
2024/02/27 09:25:51;;;;;;;17.73;11.45;;;5.30;99.90;;;;;;5033057;28;20088;-78
2024/02/27 09:28:17;;;;;;;20.95;11.70;;;5.40;99.90;;;;;;5050893;28;20065;-77
2024/02/27 09:30:43;;;;;;;17.75;11.88;;;5.50;99.90;;;;;;5048764;28;20095;-78
2024/02/27 09:33:08;;;;;;;20.23;11.95;;;5.60;99.90;;;;;;5022501;28;20046;-77
2024/02/27 09:35:34;;;;;;;18.88;11.63;;;5.70;99.90;;;;;;5029596;28;20087;-78
2024/02/27 09:38:00;;;;;;;19.85;12.18;;;5.80;99.90;;;;;;5033070;28;20128;-76
2024/02/27 09:40:26;;;;;;;22.15;12.70;;;5.90;99.90;;;;;;5048070;28;20037;-77
2024/02/27 09:42:56;;;;;;;20.58;12.18;;;6.00;99.90;;;;;;5044485;28;20037;-77
2024/02/27 09:45:25;;;;;;;19.77;12.27;;;6.00;99.90;;;;;;5014441;28;20376;-77
2024/02/27 09:47:53;;;;;;;19.35;11.57;;;6.00;99.90;;;;;;5048180;28;20036;-77
2024/02/27 09:50:20;;;;;;;17.08;11.85;;;6.00;99.90;;;;;;5049987;28;20037;-77
2024/02/27 09:52:52;;;;;;;18.80;11.43;;;6.00;99.90;;;;;;5032624;28;20051;-77
2024/02/27 09:55:20;;;;;;;18.80;11.48;;;6.10;99.90;;;;;;5046821;28;20075;-76
2024/02/27 09:57:47;;;;;;;17.90;11.88;;;6.10;99.90;;;;;;5054477;28;20037;-76
2024/02/27 10:00:16;;;;;;;16.90;11.38;;;6.10;99.90;;;;;;5053379;28;20115;-77
2024/02/27 10:02:46;;;;;;;16.95;11.50;;;6.20;99.90;;;;;;5049718;28;20499;-77
2024/02/27 10:05:16;;;;;;;18.35;11.30;;;6.20;99.90;;;;;;5051331;28;20068;-77
2024/02/27 10:07:44;;;;;;;18.05;11.45;;;6.20;99.90;;;;;;5031853;28;20052;-77
2024/02/27 10:10:10;;;;;;;17.60;10.77;;;6.20;99.90;;;;;;5054339;28;20052;-77
2024/02/27 10:12:36;;;;;;;20.58;11.55;;;6.20;99.90;;;;;;5049388;28;20111;-77
2024/02/27 10:15:02;;;;;;;18.25;11.50;;;6.20;99.90;;;;;;5051471;28;20036;-77
2024/02/27 10:17:28;;;;;;;19.05;11.98;;;6.20;99.90;;;;;;5050824;28;20037;-77
2024/02/27 10:19:53;;;;;;;17.90;11.75;;;6.00;99.90;;;;;;5054075;28;20523;-77
2024/02/27 10:22:20;;;;;;;17.38;11.98;;;6.80;99.90;;;;;;5049762;28;20495;-77
2024/02/27 10:24:45;;;;;;;18.27;12.15;;;6.00;99.90;;;;;;5033446;28;20049;-76
2024/02/27 10:27:11;;;;;;;17.90;11.95;;;6.00;99.90;;;;;;5064687;28;20052;-77
2024/02/27 10:29:38;;;;;;;18.10;11.80;;;6.00;99.90;;;;;;5050846;28;20043;-77
2024/02/27 10:32:06;;;;;;;21.15;11.88;;;6.00;99.90;;;;;;5033258;28;20502;-77
2024/02/27 10:34:32;;;;;;;21.02;12.60;;;6.10;99.90;;;;;;5011272;28;20037;-77
2024/02/27 10:37:02;;;;;;;19.38;12.13;;;6.00;99.90;;;;;;5035361;28;20091;-77
2024/02/27 10:39:30;;;;;;;18.58;11.63;;;6.10;99.90;;;;;;5029494;28;20119;-77
2024/02/27 10:41:57;;;;;;;18.67;11.20;;;6.10;99.90;;;;;;5019043;28;20483;-77
2024/02/27 10:44:25;;;;;;;19.42;12.18;;;6.10;99.90;;;;;;5041497;28;20115;-76
2024/02/27 10:46:50;;;;;;;19.65;12.60;;;6.10;99.90;;;;;;5053818;28;20455;-77
2024/02/27 10:49:17;;;;;;;21.77;12.18;;;6.10;99.90;;;;;;5053474;28;20120;-77
2024/02/27 10:51:44;;;;;;;18.65;12.40;;;6.10;99.90;;;;;;5052554;28;20037;-77
2024/02/27 10:54:12;;;;;;;17.73;11.80;;;6.10;99.90;;;;;;5035242;28;20099;-77
2024/02/27 10:56:38;;;;;;;20.90;12.20;;;6.10;99.90;;;;;;5098071;22;20096;-77
2024/02/27 10:59:06;;;;;;;19.52;12.70;;;6.40;99.90;;;;;;5034949;28;20032;-76
2024/02/27 11:01:34;;;;;;;21.83;12.38;;;6.10;99.90;;;;;;5018394;28;20044;-77
2024/02/27 11:04:04;;;;;;;22.48;12.85;;;6.60;99.90;;;;;;5033188;28;20396;-77
2024/02/27 11:06:32;;;;;;;17.58;11.52;;;6.30;99.90;;;;;;5020315;28;20073;-78
2024/02/27 11:09:07;;;;;;;19.58;11.48;;;6.50;99.90;;;;;;5018858;28;20044;-77
2024/02/27 11:11:37;;;;;;;16.98;11.10;;;6.70;99.90;;;;;;5015389;28;20034;-77
2024/02/27 11:14:07;;;;;;;16.58;11.43;;;8.00;99.90;;;;;;4999820;28;20124;-77
2024/02/27 11:16:43;;;;;;;16.92;11.48;;;8.00;99.90;;;;;;4997482;28;20037;-76
2024/02/27 11:19:21;;;;;;;16.90;11.65;;;7.00;99.90;;;;;;5024239;28;20063;-77
2024/02/27 11:21:52;;;;;;;18.15;11.57;;;7.20;99.90;;;;;;5012010;28;20041;-77
2024/02/27 11:24:19;;;;;;;17.25;11.75;;;7.70;99.90;;;;;;5026022;28;20046;-77
2024/02/27 11:26:46;;;;;;;18.13;11.88;;;8.30;99.90;;;;;;5000325;28;20037;-77
2024/02/27 11:29:14;;;;;;;15.80;11.63;;;7.90;99.90;;;;;;5040170;28;20511;-77
2024/02/27 11:31:41;;;;;;;18.05;11.75;;;8.90;99.90;;;;;;5006774;28;20046;-77
2024/02/27 11:34:07;;;;;;;17.70;11.57;;;8.30;99.90;;;;;;4998159;28;20049;-77
2024/02/27 11:36:33;;;;;;;15.98;11.05;;;8.90;99.90;;;;;;5037693;28;20404;-77
2024/02/27 11:38:59;;;;;;;15.77;11.32;;;9.80;99.90;;;;;;5034036;28;20033;-77
2024/02/27 11:41:27;;;;;;;16.05;11.70;;;9.10;99.90;;;;;;5034361;28;20041;-77
2024/02/27 11:43:57;;;;;;;16.67;11.88;;;9.40;99.90;;;;;;4995283;28;20034;-77
2024/02/27 11:46:31;;;;;;;15.07;11.63;;;9.80;99.90;;;;;;5015843;28;20052;-77
2024/02/27 11:49:01;;;;;;;15.68;10.63;;;9.70;99.90;;;;;;5035235;28;20124;-77
2024/02/27 11:51:37;;;;;;;15.63;10.95;;;10.10;99.90;;;;;;4998516;28;20132;-77
2024/02/27 11:54:11;;;;;;;14.55;11.27;;;10.00;99.90;;;;;;5034484;28;20034;-77
2024/02/27 11:56:43;;;;;;;16.67;11.52;;;10.30;99.90;;;;;;5018257;28;20041;-77
2024/02/27 11:59:12;;;;;;;13.80;11.10;;;10.20;99.90;;;;;;4988752;28;20042;-76
2024/02/27 12:01:39;;;;;;;15.45;10.70;;;10.10;99.90;;;;;;5007282;28;20048;-77
2024/02/27 12:04:09;;;;;;;13.98;11.00;;;10.20;99.90;;;;;;5016810;28;20041;-77
2024/02/27 12:06:34;;;;;;;13.80;10.15;;;9.70;99.90;;;;;;5014699;28;20077;-77
2024/02/27 12:09:00;;;;;;;15.43;11.43;;;9.50;99.90;;;;;;5030009;28;20064;-77
2024/02/27 12:11:27;;;;;;;16.15;10.88;;;9.40;99.90;;;;;;5011263;28;20042;-77
2024/02/27 12:13:53;;;;;;;15.93;10.60;;;9.40;99.90;;;;;;5014973;28;20042;-77
2024/02/27 12:16:27;;;;;;;17.52;11.85;;;10.00;99.90;;;;;;5017095;28;20268;-77
2024/02/27 12:19:00;;;;;;;13.80;10.98;;;9.80;99.90;;;;;;4996201;28;20404;-79
2024/02/27 12:21:35;;;;;;;14.60;11.35;;;9.80;99.90;;;;;;4998001;28;20484;-78
2024/02/27 12:24:27;;;;;;;15.13;11.10;;;10.00;99.90;;;;;;5025292;28;20051;-78
2024/02/27 12:27:01;;;;;;;18.35;11.00;;;9.60;99.90;;;;;;5029839;28;20056;-77
2024/02/27 12:29:27;;;;;;;15.82;11.00;;;9.60;99.90;;;;;;5015807;28;20052;-77
2024/02/27 12:32:00;;;;;;;16.48;11.68;;;9.90;99.90;;;;;;5001360;28;20120;-77
2024/02/27 12:34:33;;;;;;;14.00;10.88;;;9.60;99.90;;;;;;5027723;28;20557;-78
2024/02/27 12:36:59;;;;;;;15.55;11.23;;;9.40;99.90;;;;;;5029269;28;20029;-78
2024/02/27 12:39:25;;;;;;;14.63;10.98;;;10.00;99.90;;;;;;5013965;28;20033;-78